Flight Briefing for CMB840

Departure Arrival
Bahrain International Airport (OBBI)
Click to view FAA NOTAMS
Ambouli International Airport (HDAM)
Click to view FAA NOTAMS
Departure Time Arrival Time
N/A N/A
Aircraft Distance
B757-200SF 977nm
Departure METAR Arrival METAR
OBBI 200900Z 32012KT CAVOK 22/09 Q1015 NOSIG HDAM 200900Z 08011KT 9/9 FEW023 31/23 Q1012
Suggested Route
NARMI Q212 KIA G667 PARIM PARIM2V


View recent IFR Routes data
Notes
USTRANSCOM CONTRACT FLIGHT

Charts and Procedures

Charts for OBBI
No chart available
Charts for HDAM
No chart available

Windy.com Weather Map